Wetterdaten: Woche 26.07.04 - 01.08.04 (KW31)
Datum Zeit Temperatur Luftfeuchte Luftdruck Regenmenge Wind Richtung Taupunkt Windchill
26.07.2004 00:00 16.9 C 65 % 1017.8 hPa 0.0 l/m 1.1 km/h (0 Bft) S-SO 10.3 C 16.9 C
26.07.2004 01:00 16.0 C 72 % 1017.9 hPa 0.0 l/m 4.9 km/h (1 Bft) O-SO 11.0 C 16.0 C
26.07.2004 02:00 15.0 C 81 % 1018.0 hPa 0.0 l/m 3.0 km/h (1 Bft) O-SO 11.7 C 15.0 C
26.07.2004 03:00 14.5 C 85 % 1017.7 hPa 0.0 l/m 0.0 km/h (0 Bft) N 12.0 C 14.5 C
26.07.2004 04:00 14.2 C 88 % 1017.1 hPa 0.0 l/m 0.0 km/h (0 Bft) N 12.2 C 14.2 C
26.07.2004 05:00 13.9 C 89 % 1017.1 hPa 0.0 l/m 0.0 km/h (0 Bft) N 12.1 C 13.9 C
26.07.2004 06:00 13.5 C 93 % 1017.2 hPa 0.0 l/m 0.0 km/h (0 Bft) N 12.4 C 13.5 C
26.07.2004 07:00 14.6 C 90 % 1017.0 hPa 0.0 l/m 0.0 km/h (0 Bft) N 13.0 C 14.6 C
26.07.2004 08:00 16.1 C 79 % 1016.8 hPa 0.0 l/m 0.0 km/h (0 Bft) N 12.5 C 16.1 C
26.07.2004 09:00 17.9 C 67 % 1016.4 hPa 0.0 l/m 0.0 km/h (0 Bft) N 11.7 C 17.9 C
26.07.2004 10:00 19.8 C 56 % 1015.3 hPa 0.0 l/m 10.6 km/h (2 Bft) W-NW 10.7 C 19.8 C
26.07.2004 11:00 20.1 C 53 % 1015.3 hPa 0.0 l/m 15.4 km/h (3 Bft) W-NW 10.1 C 20.1 C
26.07.2004 12:00 20.8 C 50 % 1015.2 hPa 0.0 l/m 23.5 km/h (4 Bft) NW 9.9 C 20.8 C
26.07.2004 13:00 20.9 C 48 % 1015.0 hPa 0.0 l/m 25.1 km/h (4 Bft) NW 9.6 C 20.9 C
26.07.2004 14:00 20.6 C 49 % 1014.2 hPa 0.0 l/m 25.2 km/h (4 Bft) NW 9.7 C 20.6 C
26.07.2004 15:00 19.9 C 52 % 1014.5 hPa 0.0 l/m 25.9 km/h (4 Bft) NW 9.7 C 19.9 C
26.07.2004 16:00 20.4 C 51 % 1014.2 hPa 0.0 l/m 20.2 km/h (4 Bft) NW 9.9 C 20.4 C
26.07.2004 17:00 20.4 C 50 % 1014.2 hPa 0.0 l/m 26.0 km/h (4 Bft) NW 9.5 C 20.4 C
26.07.2004 18:00 19.6 C 53 % 1014.7 hPa 0.0 l/m 20.8 km/h (4 Bft) NW 9.8 C 19.6 C
26.07.2004 19:00 18.4 C 61 % 1015.5 hPa 0.0 l/m 10.4 km/h (2 Bft) NW 10.7 C 18.4 C
26.07.2004 20:00 18.1 C 63 % 1015.8 hPa 0.0 l/m 2.1 km/h (1 Bft) W-NW 10.9 C 18.1 C
26.07.2004 21:00 17.0 C 70 % 1016.7 hPa 0.0 l/m 1.6 km/h (1 Bft) W-NW 11.5 C 17.0 C
26.07.2004 22:00 16.4 C 76 % 1017.7 hPa 0.0 l/m 3.5 km/h (1 Bft) O-SO 12.0 C 16.4 C
26.07.2004 23:00 16.0 C 77 % 1017.9 hPa 0.0 l/m 0.9 km/h (0 Bft) O-SO 12.0 C 16.0 C
27.07.2004 00:00 14.4 C 87 % 1018.4 hPa 0.0 l/m 2.5 km/h (1 Bft) O-SO 12.2 C 14.4 C
27.07.2004 01:00 14.6 C 88 % 1018.8 hPa 0.0 l/m 0.2 km/h (0 Bft) O-SO 12.7 C 14.6 C
27.07.2004 02:00 14.6 C 91 % 1018.1 hPa 0.0 l/m 0.0 km/h (0 Bft) N 13.1 C 14.6 C
27.07.2004 03:00 13.3 C 95 % 1018.2 hPa 0.0 l/m 0.3 km/h (0 Bft) O 12.5 C 13.3 C
27.07.2004 04:00 12.0 C 98 % 1018.4 hPa 0.0 l/m 1.7 km/h (1 Bft) O-SO 11.7 C 12.0 C
27.07.2004 05:00 11.7 C 100 % 1019.2 hPa 0.0 l/m 0.6 km/h (0 Bft) O-SO 11.7 C 11.7 C
27.07.2004 06:00 11.5 C 100 % 1019.5 hPa 0.0 l/m 0.0 km/h (0 Bft) N 11.5 C 11.5 C
27.07.2004 07:00 12.5 C 98 % 1019.4 hPa 0.0 l/m 0.2 km/h (0 Bft) O-SO 12.1 C 12.5 C
27.07.2004 08:00 13.9 C 90 % 1019.2 hPa 0.0 l/m 0.3 km/h (0 Bft) W-NW 12.3 C 13.9 C
27.07.2004 09:00 16.0 C 78 % 1019.9 hPa 0.0 l/m 0.5 km/h (0 Bft) NW 12.2 C 16.0 C
27.07.2004 10:00 17.7 C 69 % 1019.7 hPa 0.0 l/m 4.9 km/h (1 Bft) O-SO 11.9 C 17.7 C
27.07.2004 11:00 20.2 C 54 % 1018.6 hPa 0.0 l/m 13.1 km/h (3 Bft) O-SO 10.5 C 20.2 C
27.07.2004 12:00 21.4 C 50 % 1018.2 hPa 0.0 l/m 10.1 km/h (2 Bft) O-SO 10.6 C 21.4 C
27.07.2004 13:00 22.6 C 45 % 1018.1 hPa 0.0 l/m 7.4 km/h (2 Bft) O-SO 10.1 C 22.6 C
27.07.2004 14:00 22.5 C 43 % 1018.1 hPa 0.0 l/m 4.0 km/h (1 Bft) O-SO 9.2 C 22.5 C
27.07.2004 15:00 21.6 C 46 % 1018.2 hPa 0.0 l/m 4.3 km/h (1 Bft) NW 9.5 C 21.6 C
27.07.2004 16:00 21.5 C 48 % 1018.2 hPa 0.0 l/m 0.4 km/h (0 Bft) N-NO 10.1 C 21.5 C
27.07.2004 17:00 23.7 C 42 % 1017.9 hPa 0.0 l/m 3.0 km/h (1 Bft) O-SO 9.9 C 23.7 C
27.07.2004 18:00 22.9 C 41 % 1018.0 hPa 0.0 l/m 1.2 km/h (1 Bft) NO 8.8 C 22.9 C
27.07.2004 19:00 20.7 C 51 % 1018.3 hPa 0.0 l/m 0.3 km/h (0 Bft) N 10.1 C 20.7 C
27.07.2004 20:00 18.3 C 67 % 1018.6 hPa 0.0 l/m 4.3 km/h (1 Bft) O 12.0 C 18.3 C
27.07.2004 21:00 16.2 C 76 % 1019.1 hPa 0.0 l/m 1.4 km/h (1 Bft) O 12.0 C 16.2 C
27.07.2004 22:00 14.4 C 83 % 1020.1 hPa 0.0 l/m 0.2 km/h (0 Bft) O 11.6 C 14.4 C
27.07.2004 23:00 13.5 C 89 % 1020.3 hPa 0.0 l/m 0.0 km/h (0 Bft) N 11.8 C 13.5 C
28.07.2004 00:00 13.1 C 92 % 1020.4 hPa 0.0 l/m 0.0 km/h (0 Bft) N 11.8 C 13.1 C
28.07.2004 01:00 12.1 C 95 % 1020.5 hPa 0.0 l/m 0.0 km/h (0 Bft) N 11.3 C 12.1 C
28.07.2004 02:00 11.7 C 95 % 1020.5 hPa 0.0 l/m 0.0 km/h (0 Bft) N 10.9 C 11.7 C
28.07.2004 03:00 11.4 C 93 % 1020.1 hPa 0.0 l/m 0.0 km/h (0 Bft) N 10.3 C 11.4 C
28.07.2004 04:00 10.8 C 94 % 1020.2 hPa 0.0 l/m 0.0 km/h (0 Bft) N 9.9 C 10.8 C
28.07.2004 05:00 10.3 C 95 % 1020.7 hPa 0.0 l/m 0.7 km/h (0 Bft) O 9.6 C 10.3 C
28.07.2004 06:00 9.8 C 97 % 1020.8 hPa 0.0 l/m 2.0 km/h (1 Bft) O 9.4 C 9.7 C
28.07.2004 07:00 11.3 C 94 % 1020.6 hPa 0.0 l/m 0.0 km/h (0 Bft) N 10.4 C 11.3 C
28.07.2004 08:00 13.5 C 81 % 1020.3 hPa 0.0 l/m 0.0 km/h (0 Bft) N 10.2 C 13.5 C
28.07.2004 09:00 16.7 C 62 % 1019.8 hPa 0.0 l/m 6.1 km/h (2 Bft) O-SO 9.3 C 16.7 C
28.07.2004 10:00 19.6 C 54 % 1018.4 hPa 0.0 l/m 7.8 km/h (2 Bft) O-SO 9.9 C 19.6 C
28.07.2004 11:00 21.4 C 43 % 1018.2 hPa 0.0 l/m 16.1 km/h (3 Bft) O 8.2 C 21.4 C
28.07.2004 12:00 22.7 C 37 % 1018.0 hPa 0.0 l/m 23.9 km/h (4 Bft) O-SO 7.2 C 22.7 C
28.07.2004 13:00 23.8 C 35 % 1017.9 hPa 0.0 l/m 19.6 km/h (3 Bft) O-SO 7.5 C 23.8 C
28.07.2004 14:00 24.7 C 34 % 1017.1 hPa 0.0 l/m 15.4 km/h (3 Bft) O-SO 7.8 C 24.7 C
28.07.2004 15:00 25.0 C 33 % 1016.7 hPa 0.0 l/m 21.1 km/h (4 Bft) O-SO 7.7 C 25.0 C
28.07.2004 16:00 25.2 C 33 % 1016.7 hPa 0.0 l/m 19.5 km/h (3 Bft) O-SO 7.9 C 25.2 C
28.07.2004 17:00 25.0 C 34 % 1016.2 hPa 0.0 l/m 18.5 km/h (3 Bft) O-SO 7.9 C 25.0 C
28.07.2004 18:00 24.3 C 36 % 1015.8 hPa 0.0 l/m 16.2 km/h (3 Bft) O-SO 8.3 C 24.3 C
28.07.2004 19:00 23.4 C 38 % 1016.0 hPa 0.0 l/m 16.0 km/h (3 Bft) O-SO 8.3 C 23.4 C
28.07.2004 20:00 21.7 C 44 % 1017.1 hPa 0.0 l/m 5.6 km/h (1 Bft) O-SO 8.8 C 21.7 C
28.07.2004 21:00 18.8 C 54 % 1017.5 hPa 0.0 l/m 0.3 km/h (0 Bft) O-SO 9.4 C 18.8 C
28.07.2004 22:00 17.5 C 60 % 1017.7 hPa 0.0 l/m 0.3 km/h (0 Bft) O-NO 9.6 C 17.5 C
28.07.2004 23:00 15.7 C 68 % 1017.9 hPa 0.0 l/m 0.2 km/h (0 Bft) N-NO 9.8 C 15.7 C
29.07.2004 00:00 13.9 C 78 % 1018.2 hPa 0.0 l/m 1.0 km/h (0 Bft) N-NO 10.2 C 13.9 C
29.07.2004 01:00 13.8 C 78 % 1018.2 hPa 0.0 l/m 0.0 km/h (0 Bft) N 10.0 C 13.8 C
29.07.2004 02:00 12.4 C 84 % 1018.4 hPa 0.0 l/m 0.3 km/h (0 Bft) NO 9.8 C 12.4 C
29.07.2004 03:00 12.1 C 86 % 1018.4 hPa 0.0 l/m 0.0 km/h (0 Bft) N 9.8 C 12.1 C
29.07.2004 04:00 11.1 C 90 % 1018.5 hPa 0.0 l/m 0.0 km/h (0 Bft) N 9.5 C 11.1 C
29.07.2004 05:00 10.5 C 93 % 1018.6 hPa 0.0 l/m 0.0 km/h (0 Bft) N 9.4 C 10.5 C
29.07.2004 06:00 10.8 C 92 % 1018.6 hPa 0.0 l/m 0.0 km/h (0 Bft) N 9.6 C 10.8 C
29.07.2004 07:00 12.1 C 88 % 1018.0 hPa 0.0 l/m 0.0 km/h (0 Bft) N 10.2 C 12.1 C
29.07.2004 08:00 14.6 C 77 % 1018.1 hPa 0.0 l/m 0.1 km/h (0 Bft) N 10.5 C 14.6 C
29.07.2004 09:00 17.9 C 56 % 1017.6 hPa 0.0 l/m 5.2 km/h (1 Bft) O 9.0 C 17.9 C
29.07.2004 10:00 19.7 C 53 % 1016.6 hPa 0.0 l/m 1.6 km/h (1 Bft) O 9.8 C 19.7 C
29.07.2004 11:00 22.1 C 48 % 1016.0 hPa 0.0 l/m 7.2 km/h (2 Bft) O-SO 10.6 C 22.1 C
29.07.2004 12:00 24.0 C 43 % 1015.8 hPa 0.0 l/m 11.2 km/h (2 Bft) O-SO 10.5 C 24.0 C
29.07.2004 13:00 25.5 C 38 % 1015.3 hPa 0.0 l/m 11.8 km/h (2 Bft) O-SO 10.0 C 25.5 C
29.07.2004 14:00 27.0 C 35 % 1014.4 hPa 0.0 l/m 10.6 km/h (2 Bft) O-SO 10.4 C 27.0 C
29.07.2004 15:00 27.7 C 34 % 1014.3 hPa 0.0 l/m 8.1 km/h (2 Bft) O-SO 10.3 C 27.7 C
29.07.2004 16:00 27.9 C 33 % 1013.5 hPa 0.0 l/m 7.2 km/h (2 Bft) O-SO 9.9 C 27.9 C
29.07.2004 17:00 27.7 C 32 % 1013.3 hPa 0.0 l/m 10.8 km/h (2 Bft) O-SO 9.5 C 27.7 C
29.07.2004 18:00 27.1 C 33 % 1013.7 hPa 0.0 l/m 10.3 km/h (2 Bft) O-SO 9.4 C 27.1 C
29.07.2004 19:00 26.0 C 36 % 1013.9 hPa 0.0 l/m 8.4 km/h (2 Bft) O-SO 9.7 C 26.0 C
29.07.2004 20:00 23.8 C 42 % 1014.8 hPa 0.0 l/m 1.2 km/h (1 Bft) O-SO 10.2 C 23.8 C
29.07.2004 21:00 20.5 C 55 % 1015.6 hPa 0.0 l/m 0.9 km/h (0 Bft) O-SO 11.2 C 20.5 C
29.07.2004 22:00 18.5 C 65 % 1016.5 hPa 0.0 l/m 1.0 km/h (0 Bft) O-SO 11.6 C 18.5 C
29.07.2004 23:00 16.7 C 76 % 1016.8 hPa 0.0 l/m 0.5 km/h (0 Bft) O-SO 12.4 C 16.7 C
30.07.2004 00:00 15.4 C 83 % 1017.5 hPa 0.0 l/m 0.1 km/h (0 Bft) O-SO 12.6 C 15.4 C
30.07.2004 01:00 14.9 C 85 % 1018.0 hPa 0.0 l/m 0.0 km/h (0 Bft) N 12.5 C 14.9 C
30.07.2004 02:00 13.9 C 89 % 1018.2 hPa 0.0 l/m 0.0 km/h (0 Bft) N 12.2 C 13.9 C
30.07.2004 03:00 13.3 C 91 % 1018.2 hPa 0.0 l/m 0.0 km/h (0 Bft) N 11.9 C 13.3 C
30.07.2004 04:00 12.8 C 94 % 1018.5 hPa 0.0 l/m 0.0 km/h (0 Bft) N 11.8 C 12.8 C
30.07.2004 05:00 12.5 C 95 % 1019.4 hPa 0.0 l/m 0.0 km/h (0 Bft) N 11.7 C 12.5 C
30.07.2004 06:00 12.6 C 95 % 1019.4 hPa 0.0 l/m 0.0 km/h (0 Bft) N 11.7 C 12.6 C
30.07.2004 07:00 14.3 C 87 % 1020.0 hPa 0.0 l/m 0.0 km/h (0 Bft) N 12.2 C 14.3 C
30.07.2004 08:00 15.8 C 78 % 1020.0 hPa 0.0 l/m 0.0 km/h (0 Bft) N 12.0 C 15.8 C
30.07.2004 09:00 18.0 C 68 % 1019.7 hPa 0.0 l/m 0.1 km/h (0 Bft) N 11.9 C 18.0 C
30.07.2004 10:00 21.1 C 56 % 1019.3 hPa 0.0 l/m 0.7 km/h (0 Bft) O-SO 12.0 C 21.1 C
30.07.2004 11:00 24.2 C 50 % 1018.2 hPa 0.0 l/m 2.4 km/h (1 Bft) O-SO 12.9 C 24.2 C
30.07.2004 12:00 26.7 C 39 % 1017.5 hPa 0.0 l/m 9.6 km/h (2 Bft) W-NW 11.3 C 26.7 C
30.07.2004 13:00 28.2 C 31 % 1017.4 hPa 0.0 l/m 11.4 km/h (2 Bft) W-NW 9.6 C 28.2 C
30.07.2004 14:00 29.2 C 31 % 1017.2 hPa 0.0 l/m 14.9 km/h (3 Bft) W-NW 10.3 C 29.2 C
30.07.2004 15:00 30.2 C 29 % 1017.1 hPa 0.0 l/m 9.9 km/h (2 Bft) W-NW 10.0 C 30.2 C
30.07.2004 16:00 30.7 C 30 % 1017.1 hPa 0.0 l/m 12.5 km/h (3 Bft) NW 11.1 C 30.7 C
30.07.2004 17:00 30.9 C 31 % 1016.6 hPa 0.0 l/m 7.4 km/h (2 Bft) NW 11.9 C 30.9 C
30.07.2004 18:00 29.8 C 36 % 1016.1 hPa 0.0 l/m 5.5 km/h (1 Bft) W-NW 13.1 C 29.8 C
30.07.2004 19:00 28.3 C 39 % 1016.7 hPa 0.0 l/m 4.6 km/h (1 Bft) W-NW 13.1 C 28.3 C
30.07.2004 20:00 26.3 C 43 % 1017.6 hPa 0.0 l/m 0.0 km/h (0 Bft) N 12.9 C 26.3 C
30.07.2004 21:00 23.7 C 52 % 1018.3 hPa 0.0 l/m 1.8 km/h (1 Bft) O-SO 13.1 C 23.7 C
30.07.2004 22:00 21.2 C 64 % 1019.3 hPa 0.0 l/m 6.2 km/h (2 Bft) O-SO 14.0 C 21.2 C
30.07.2004 23:00 19.3 C 74 % 1019.5 hPa 0.0 l/m 3.4 km/h (1 Bft) O-SO 14.5 C 19.3 C
31.07.2004 00:00 17.9 C 81 % 1020.5 hPa 0.0 l/m 0.0 km/h (0 Bft) N 14.6 C 17.9 C
31.07.2004 01:00 16.7 C 86 % 1020.9 hPa 0.0 l/m 0.0 km/h (0 Bft) N 14.4 C 16.7 C
31.07.2004 02:00 16.1 C 90 % 1021.0 hPa 0.0 l/m 0.0 km/h (0 Bft) N 14.4 C 16.1 C
31.07.2004 03:00 15.5 C 93 % 1021.1 hPa 0.0 l/m 0.0 km/h (0 Bft) N 14.3 C 15.5 C
31.07.2004 04:00 14.8 C 94 % 1021.2 hPa 0.0 l/m 0.0 km/h (0 Bft) N 13.8 C 14.8 C
31.07.2004 05:00 13.9 C 97 % 1021.3 hPa 0.0 l/m 1.9 km/h (1 Bft) O-SO 13.5 C 13.9 C
31.07.2004 06:00 14.1 C 98 % 1021.2 hPa 0.0 l/m 2.6 km/h (1 Bft) O-SO 13.8 C 14.1 C
31.07.2004 07:00 15.3 C 92 % 1021.3 hPa 0.0 l/m 0.7 km/h (0 Bft) O-SO 14.0 C 15.3 C
31.07.2004 08:00 16.7 C 84 % 1021.9 hPa 0.0 l/m 0.0 km/h (0 Bft) N 14.1 C 16.7 C
31.07.2004 09:00 18.6 C 75 % 1020.9 hPa 0.0 l/m 1.2 km/h (1 Bft) W-NW 14.0 C 18.6 C
31.07.2004 10:00 21.2 C 64 % 1020.3 hPa 0.0 l/m 1.0 km/h (0 Bft) W-NW 14.0 C 21.2 C
31.07.2004 11:00 24.3 C 53 % 1019.8 hPa 0.0 l/m 3.4 km/h (1 Bft) W-NW 14.0 C 24.3 C
31.07.2004 12:00 26.9 C 41 % 1018.6 hPa 0.0 l/m 4.5 km/h (1 Bft) W-NW 12.6 C 26.9 C
31.07.2004 13:00 28.8 C 35 % 1018.3 hPa 0.0 l/m 2.9 km/h (1 Bft) W-NW 11.8 C 28.8 C
31.07.2004 14:00 29.3 C 35 % 1018.3 hPa 0.0 l/m 1.0 km/h (0 Bft) N-NW 12.0 C 29.3 C
31.07.2004 15:00 30.0 C 34 % 1018.2 hPa 0.0 l/m 1.0 km/h (0 Bft) W-NW 12.3 C 30.0 C
31.07.2004 16:00 31.3 C 31 % 1017.4 hPa 0.0 l/m 3.5 km/h (1 Bft) W-NW 12.0 C 31.3 C
31.07.2004 17:00 31.3 C 34 % 1017.0 hPa 0.0 l/m 2.9 km/h (1 Bft) W-NW 13.6 C 31.3 C
31.07.2004 18:00 30.3 C 37 % 1017.1 hPa 0.0 l/m 1.9 km/h (1 Bft) W 13.8 C 30.3 C
31.07.2004 19:00 29.0 C 38 % 1017.3 hPa 0.0 l/m 0.3 km/h (0 Bft) W 13.0 C 29.0 C
31.07.2004 20:00 26.4 C 46 % 1017.6 hPa 0.0 l/m 3.2 km/h (1 Bft) O-SO 13.6 C 26.4 C
31.07.2004 21:00 23.2 C 57 % 1018.1 hPa 0.0 l/m 4.1 km/h (1 Bft) O-SO 14.2 C 23.2 C
31.07.2004 22:00 20.5 C 68 % 1019.4 hPa 0.0 l/m 5.2 km/h (1 Bft) O-SO 14.3 C 20.5 C
31.07.2004 23:00 19.2 C 72 % 1019.5 hPa 0.0 l/m 2.4 km/h (1 Bft) O-SO 13.9 C 19.2 C
01.08.2004 00:00 18.2 C 75 % 1019.7 hPa 0.0 l/m 2.7 km/h (1 Bft) O-SO 13.7 C 18.2 C
01.08.2004 01:00 17.3 C 80 % 1019.8 hPa 0.0 l/m 2.8 km/h (1 Bft) O-SO 13.8 C 17.3 C
01.08.2004 02:00 16.2 C 85 % 1019.9 hPa 0.0 l/m 0.0 km/h (0 Bft) N 13.6 C 16.2 C
01.08.2004 03:00 16.3 C 85 % 1019.6 hPa 0.0 l/m 0.0 km/h (0 Bft) N 13.8 C 16.3 C
01.08.2004 04:00 16.1 C 87 % 1018.9 hPa 0.0 l/m 0.1 km/h (0 Bft) N 13.9 C 16.1 C
01.08.2004 05:00 15.3 C 91 % 1019.0 hPa 0.0 l/m 0.8 km/h (0 Bft) O-SO 13.8 C 15.3 C
01.08.2004 06:00 14.8 C 94 % 1020.1 hPa 0.0 l/m 0.0 km/h (0 Bft) N 13.9 C 14.8 C
01.08.2004 07:00 16.0 C 91 % 1019.0 hPa 0.0 l/m 0.0 km/h (0 Bft) N 14.4 C 16.0 C
01.08.2004 08:00 17.8 C 80 % 1019.0 hPa 0.0 l/m 0.0 km/h (0 Bft) N 14.2 C 17.8 C
01.08.2004 09:00 20.3 C 68 % 1018.3 hPa 0.0 l/m 0.0 km/h (0 Bft) N 14.3 C 20.3 C
01.08.2004 10:00 23.7 C 58 % 1017.9 hPa 0.0 l/m 2.8 km/h (1 Bft) O-SO 14.7 C 23.7 C
01.08.2004 11:00 26.3 C 46 % 1016.6 hPa 0.0 l/m 4.6 km/h (1 Bft) O-SO 13.9 C 26.3 C
01.08.2004 12:00 28.7 C 40 % 1016.3 hPa 0.0 l/m 4.2 km/h (1 Bft) O 13.8 C 28.7 C
01.08.2004 13:00 30.2 C 33 % 1015.3 hPa 0.0 l/m 6.0 km/h (2 Bft) W-NW 12.0 C 30.2 C
01.08.2004 14:00 31.6 C 26 % 1014.9 hPa 0.0 l/m 7.6 km/h (2 Bft) W-NW 9.6 C 31.6 C
01.08.2004 15:00 32.4 C 25 % 1014.1 hPa 0.0 l/m 11.6 km/h (2 Bft) NW 10.0 C 32.4 C
01.08.2004 16:00 32.5 C 27 % 1013.7 hPa 0.0 l/m 13.8 km/h (3 Bft) NW 11.1 C 32.5 C
01.08.2004 17:00 32.2 C 28 % 1013.5 hPa 0.0 l/m 11.8 km/h (2 Bft) NW 11.4 C 32.2 C
01.08.2004 18:00 31.3 C 34 % 1012.8 hPa 0.0 l/m 10.7 km/h (2 Bft) W-NW 13.5 C 31.3 C
01.08.2004 19:00 29.9 C 39 % 1013.2 hPa 0.0 l/m 11.9 km/h (2 Bft) W-NW 14.3 C 29.9 C
01.08.2004 20:00 27.8 C 45 % 1013.8 hPa 0.0 l/m 0.7 km/h (0 Bft) NW 14.7 C 27.8 C
01.08.2004 21:00 24.7 C 54 % 1014.7 hPa 0.0 l/m 0.9 km/h (0 Bft) SO 14.7 C 24.7 C
01.08.2004 22:00 22.5 C 66 % 1015.0 hPa 0.0 l/m 5.5 km/h (1 Bft) O-SO 15.8 C 22.5 C
01.08.2004 23:00 20.8 C 73 % 1015.2 hPa 0.0 l/m 3.5 km/h (1 Bft) O-SO 15.8 C 20.8 C
Min-Datum _ 28.07.04 01.08.04 01.08.04 - 26.07.04 - 28.07.04 28.07.04
_ Min-Zeit 06:09 14:15 17:42 - 00:00 - 12:24 06:27
Minimum _ 9.5 C 25 % 1012.7 hPa - 0.0 km/h (0 Bft) - 5.7 C 8.9 C
Max-Datum _ 01.08.04 27.07.04 31.07.04 26.07.04 26.07.04 - 01.08.04 01.08.04
_ Max-Zeit 15:54 05:03 07:45 00:00 15:03 - 22:54 15:54
Maximum _ 32.9 C 100 % 1022.0 hPa 0.0 l/m 44.8 km/h
NW (6 Bft)
- 16.1 C 32.9 C
Durchschnitt _ 19.8 C 64 % 1017.8 hPa #0.0 l/m 4.8 km/h (1 Bft) O-SO 11.6 C 19.8 C

Durchschnitt Minimum Temp.18.8 C
Durchschnitt Maximum Temp.20.8 C
© Kaiko 2004